EIN1B EGAC-EGCC
Flight info
| Callsign | EIN1B |
|---|---|
| Flight time | 0h 36m |
| Altitude | 23000 |
| Route | DUFFY L15 PEPOD Q38 MAKUX |
| Aircraft | A320/M-SDE3FGHIRWY/LB1 |
Departure
| Time | 2026-04-12 06:09 |
|---|---|
| Airport | George Best Belfast City Airport (EGAC) |
Arrival
| Time | 2026-04-12 06:46 |
|---|---|
| Airport | Manchester Airport (EGCC) |
| Time | Latitude | Longitude | Altitude | Speed | Heading |
|---|---|---|---|---|---|
| 2026-04-12 05:43 | 54.61460 | -5.87187 | 24 ft | 0 kts | 156° |
| 2026-04-12 06:01 | 54.61468 | -5.87193 | 25 ft | 4 kts | 147° |
| 2026-04-12 06:01 | 54.61484 | -5.87223 | 23 ft | 4 kts | 95° |
| 2026-04-12 06:02 | 54.61479 | -5.87267 | 23 ft | 4 kts | 62° |
| 2026-04-12 06:02 | 54.61464 | -5.87303 | 24 ft | 3 kts | 38° |
| 2026-04-12 06:02 | 54.61460 | -5.87308 | 24 ft | 0 kts | 34° |
| 2026-04-12 06:04 | 54.61461 | -5.87307 | 24 ft | 1 kts | 34° |
| 2026-04-12 06:04 | 54.61490 | -5.87273 | 23 ft | 7 kts | 34° |
| 2026-04-12 06:04 | 54.61530 | -5.87225 | 23 ft | 8 kts | 34° |
| 2026-04-12 06:04 | 54.61580 | -5.87165 | 23 ft | 11 kts | 35° |
| 2026-04-12 06:05 | 54.61637 | -5.87096 | 23 ft | 9 kts | 35° |
| 2026-04-12 06:05 | 54.61688 | -5.87035 | 23 ft | 9 kts | 35° |
| 2026-04-12 06:05 | 54.61738 | -5.86992 | 23 ft | 7 kts | 4° |
| 2026-04-12 06:05 | 54.61782 | -5.87049 | 23 ft | 11 kts | 306° |
| 2026-04-12 06:06 | 54.61825 | -5.87154 | 24 ft | 9 kts | 313° |
| 2026-04-12 06:06 | 54.61880 | -5.87165 | 24 ft | 12 kts | 21° |
| 2026-04-12 06:06 | 54.61978 | -5.87050 | 23 ft | 18 kts | 34° |
| 2026-04-12 06:06 | 54.62075 | -5.86934 | 23 ft | 16 kts | 35° |
| 2026-04-12 06:07 | 54.62173 | -5.86817 | 23 ft | 17 kts | 34° |
| 2026-04-12 06:07 | 54.62260 | -5.86714 | 24 ft | 14 kts | 34° |
| 2026-04-12 06:07 | 54.62338 | -5.86621 | 24 ft | 13 kts | 34° |
| 2026-04-12 06:07 | 54.62408 | -5.86552 | 24 ft | 11 kts | 16° |
| 2026-04-12 06:08 | 54.62477 | -5.86524 | 24 ft | 10 kts | 42° |
| 2026-04-12 06:08 | 54.62470 | -5.86467 | 23 ft | 4 kts | 173° |
| 2026-04-12 06:08 | 54.62460 | -5.86479 | 23 ft | 0 kts | 215° |
| 2026-04-12 06:08 | 54.62409 | -5.86541 | 25 ft | 38 kts | 215° |
| 2026-04-12 06:09 | 54.61982 | -5.87049 | 23 ft | 107 kts | 215° |
| 2026-04-12 06:09 | 54.61261 | -5.87898 | 325 ft | 131 kts | 212° |
| 2026-04-12 06:09 | 54.60497 | -5.88775 | 1018 ft | 131 kts | 216° |
| 2026-04-12 06:09 | 54.59732 | -5.89681 | 1634 ft | 140 kts | 216° |
| 2026-04-12 06:10 | 54.58705 | -5.90121 | 2063 ft | 169 kts | 186° |
| 2026-04-12 06:10 | 54.57491 | -5.89577 | 2514 ft | 191 kts | 174° |
| 2026-04-12 06:10 | 54.56187 | -5.88849 | 2948 ft | 201 kts | 173° |
| 2026-04-12 06:10 | 54.54839 | -5.88075 | 3482 ft | 209 kts | 172° |
| 2026-04-12 06:11 | 54.53394 | -5.87255 | 3820 ft | 229 kts | 171° |
| 2026-04-12 06:11 | 54.51801 | -5.86341 | 4216 ft | 256 kts | 167° |
| 2026-04-12 06:11 | 54.50198 | -5.84665 | 4844 ft | 279 kts | 151° |
| 2026-04-12 06:11 | 54.48612 | -5.82707 | 5728 ft | 283 kts | 152° |
| 2026-04-12 06:12 | 54.46997 | -5.80730 | 6571 ft | 287 kts | 152° |
| 2026-04-12 06:12 | 54.45359 | -5.78744 | 7436 ft | 290 kts | 152° |
| 2026-04-12 06:12 | 54.43719 | -5.76765 | 8305 ft | 293 kts | 152° |
| 2026-04-12 06:12 | 54.42014 | -5.74717 | 9189 ft | 297 kts | 152° |
| 2026-04-12 06:13 | 54.40327 | -5.72698 | 9881 ft | 307 kts | 152° |
| 2026-04-12 06:13 | 54.38505 | -5.70536 | 10143 ft | 330 kts | 152° |
| 2026-04-12 06:13 | 54.36553 | -5.68226 | 10428 ft | 350 kts | 152° |
| 2026-04-12 06:13 | 54.34523 | -5.65804 | 11017 ft | 358 kts | 151° |
| 2026-04-12 06:14 | 54.32471 | -5.63340 | 11746 ft | 362 kts | 151° |
| 2026-04-12 06:14 | 54.30397 | -5.60854 | 12515 ft | 365 kts | 151° |
| 2026-04-12 06:14 | 54.28324 | -5.58297 | 13258 ft | 372 kts | 146° |
| 2026-04-12 06:14 | 54.26445 | -5.55185 | 13921 ft | 381 kts | 135° |
| 2026-04-12 06:15 | 54.24834 | -5.51532 | 14587 ft | 387 kts | 130° |
| 2026-04-12 06:15 | 54.23255 | -5.47776 | 15258 ft | 389 kts | 130° |
| 2026-04-12 06:15 | 54.21667 | -5.44014 | 15928 ft | 392 kts | 130° |
| 2026-04-12 06:15 | 54.20065 | -5.40227 | 16565 ft | 395 kts | 130° |
| 2026-04-12 06:16 | 54.18452 | -5.36414 | 17206 ft | 397 kts | 130° |
| 2026-04-12 06:16 | 54.16827 | -5.32578 | 17836 ft | 400 kts | 130° |
| 2026-04-12 06:16 | 54.15189 | -5.28726 | 18372 ft | 402 kts | 131° |
| 2026-04-12 06:16 | 54.13540 | -5.24853 | 18909 ft | 405 kts | 131° |
| 2026-04-12 06:17 | 54.11878 | -5.20956 | 19437 ft | 407 kts | 131° |
| 2026-04-12 06:17 | 54.10210 | -5.17045 | 19966 ft | 410 kts | 131° |
| 2026-04-12 06:17 | 54.08525 | -5.13104 | 20473 ft | 412 kts | 131° |
| 2026-04-12 06:17 | 54.06824 | -5.09139 | 20959 ft | 415 kts | 131° |
| 2026-04-12 06:18 | 54.05111 | -5.05154 | 21453 ft | 418 kts | 131° |
| 2026-04-12 06:18 | 54.03411 | -5.01192 | 21933 ft | 421 kts | 131° |
| 2026-04-12 06:18 | 54.01678 | -4.97152 | 22397 ft | 424 kts | 131° |
| 2026-04-12 06:18 | 53.99931 | -4.93093 | 22560 ft | 428 kts | 131° |
| 2026-04-12 06:19 | 53.98136 | -4.88941 | 22574 ft | 431 kts | 131° |
| 2026-04-12 06:19 | 53.96384 | -4.84887 | 22573 ft | 432 kts | 131° |
| 2026-04-12 06:19 | 53.94605 | -4.80772 | 22579 ft | 432 kts | 131° |
| 2026-04-12 06:19 | 53.92823 | -4.76660 | 22579 ft | 432 kts | 131° |
| 2026-04-12 06:20 | 53.91036 | -4.72552 | 22579 ft | 432 kts | 131° |
| 2026-04-12 06:20 | 53.89251 | -4.68455 | 22556 ft | 432 kts | 131° |
| 2026-04-12 06:20 | 53.87463 | -4.64357 | 22570 ft | 432 kts | 131° |
| 2026-04-12 06:20 | 53.85675 | -4.60268 | 22578 ft | 432 kts | 131° |
| 2026-04-12 06:21 | 53.83881 | -4.56180 | 22581 ft | 432 kts | 131° |
| 2026-04-12 06:21 | 53.82085 | -4.52088 | 22584 ft | 432 kts | 131° |
| 2026-04-12 06:21 | 53.80293 | -4.48003 | 22586 ft | 432 kts | 131° |
| 2026-04-12 06:21 | 53.78502 | -4.43925 | 22588 ft | 432 kts | 131° |
| 2026-04-12 06:22 | 53.76709 | -4.39850 | 22591 ft | 432 kts | 131° |
| 2026-04-12 06:22 | 53.74914 | -4.35773 | 22610 ft | 432 kts | 131° |
| 2026-04-12 06:22 | 53.73120 | -4.31699 | 22609 ft | 432 kts | 131° |
| 2026-04-12 06:22 | 53.71321 | -4.27627 | 22608 ft | 432 kts | 131° |
| 2026-04-12 06:23 | 53.69521 | -4.23575 | 22606 ft | 432 kts | 131° |
| 2026-04-12 06:23 | 53.67718 | -4.19525 | 22606 ft | 432 kts | 131° |
| 2026-04-12 06:23 | 53.65932 | -4.15514 | 22571 ft | 424 kts | 131° |
| 2026-04-12 06:23 | 53.64190 | -4.11541 | 22249 ft | 420 kts | 128° |
| 2026-04-12 06:24 | 53.62759 | -4.07258 | 21600 ft | 421 kts | 117° |
| 2026-04-12 06:24 | 53.61638 | -4.02720 | 20969 ft | 418 kts | 116° |
| 2026-04-12 06:24 | 53.60533 | -3.98207 | 20352 ft | 415 kts | 116° |
| 2026-04-12 06:24 | 53.59802 | -3.95238 | 19954 ft | 413 kts | 116° |
| 2026-04-12 06:25 | 53.58700 | -3.90789 | 19360 ft | 411 kts | 116° |
| 2026-04-12 06:25 | 53.57603 | -3.86368 | 18775 ft | 408 kts | 116° |
| 2026-04-12 06:25 | 53.56507 | -3.81960 | 18200 ft | 406 kts | 116° |
| 2026-04-12 06:25 | 53.55063 | -3.76172 | 17383 ft | 404 kts | 116° |
| 2026-04-12 06:26 | 53.54328 | -3.73238 | 16954 ft | 403 kts | 117° |
| 2026-04-12 06:26 | 53.53248 | -3.68932 | 16636 ft | 396 kts | 116° |
| 2026-04-12 06:26 | 53.52185 | -3.64691 | 16255 ft | 392 kts | 116° |
| 2026-04-12 06:26 | 53.51136 | -3.60496 | 15849 ft | 386 kts | 116° |
| 2026-04-12 06:27 | 53.50100 | -3.56362 | 15448 ft | 381 kts | 116° |
| 2026-04-12 06:27 | 53.49077 | -3.52288 | 15095 ft | 376 kts | 117° |
| 2026-04-12 06:27 | 53.48066 | -3.48283 | 14763 ft | 369 kts | 117° |
| 2026-04-12 06:27 | 53.47071 | -3.44346 | 14431 ft | 364 kts | 117° |
| 2026-04-12 06:28 | 53.46102 | -3.40516 | 14114 ft | 359 kts | 117° |
| 2026-04-12 06:28 | 53.45131 | -3.36687 | 13787 ft | 354 kts | 117° |
| 2026-04-12 06:28 | 53.44170 | -3.32910 | 13463 ft | 350 kts | 117° |
| 2026-04-12 06:28 | 53.43218 | -3.29180 | 13130 ft | 346 kts | 117° |
| 2026-04-12 06:29 | 53.42275 | -3.25491 | 12777 ft | 342 kts | 117° |
| 2026-04-12 06:29 | 53.41342 | -3.21839 | 12425 ft | 339 kts | 117° |
| 2026-04-12 06:29 | 53.40456 | -3.18192 | 12089 ft | 338 kts | 110° |
| 2026-04-12 06:29 | 53.40098 | -3.14323 | 11745 ft | 335 kts | 91° |
| 2026-04-12 06:30 | 53.40441 | -3.10510 | 11401 ft | 328 kts | 72° |
| 2026-04-12 06:30 | 53.41392 | -3.07107 | 11049 ft | 321 kts | 59° |
| 2026-04-12 06:30 | 53.42516 | -3.03882 | 10726 ft | 318 kts | 59° |
| 2026-04-12 06:30 | 53.43627 | -3.00696 | 10401 ft | 315 kts | 59° |
| 2026-04-12 06:31 | 53.44728 | -2.97525 | 10043 ft | 312 kts | 59° |
| 2026-04-12 06:31 | 53.45813 | -2.94391 | 9714 ft | 309 kts | 59° |
| 2026-04-12 06:31 | 53.46886 | -2.91281 | 9380 ft | 306 kts | 59° |
| 2026-04-12 06:31 | 53.47949 | -2.88198 | 9030 ft | 304 kts | 59° |
| 2026-04-12 06:32 | 53.49000 | -2.85140 | 8679 ft | 301 kts | 59° |
| 2026-04-12 06:32 | 53.50039 | -2.82116 | 8330 ft | 298 kts | 59° |
| 2026-04-12 06:32 | 53.51067 | -2.79117 | 7987 ft | 295 kts | 59° |
| 2026-04-12 06:32 | 53.52082 | -2.76148 | 7640 ft | 292 kts | 59° |
| 2026-04-12 06:33 | 53.53088 | -2.73209 | 7307 ft | 289 kts | 59° |
| 2026-04-12 06:33 | 53.54015 | -2.70233 | 6972 ft | 286 kts | 70° |
| 2026-04-12 06:33 | 53.54638 | -2.67070 | 6644 ft | 285 kts | 75° |
| 2026-04-12 06:33 | 53.55196 | -2.63873 | 6380 ft | 284 kts | 77° |
| 2026-04-12 06:34 | 53.55643 | -2.60640 | 6133 ft | 283 kts | 80° |
| 2026-04-12 06:34 | 53.56051 | -2.57414 | 5855 ft | 282 kts | 80° |
| 2026-04-12 06:34 | 53.56470 | -2.54192 | 5589 ft | 281 kts | 80° |
| 2026-04-12 06:34 | 53.56895 | -2.50989 | 5325 ft | 280 kts | 80° |
| 2026-04-12 06:35 | 53.57762 | -2.44623 | 4811 ft | 279 kts | 80° |
| 2026-04-12 06:35 | 53.58196 | -2.41449 | 4553 ft | 278 kts | 82° |
| 2026-04-12 06:35 | 53.58448 | -2.38258 | 4291 ft | 274 kts | 89° |
| 2026-04-12 06:36 | 53.58612 | -2.35077 | 4026 ft | 272 kts | 90° |
| 2026-04-12 06:36 | 53.58771 | -2.31921 | 3760 ft | 270 kts | 90° |
| 2026-04-12 06:36 | 53.58932 | -2.28774 | 3528 ft | 269 kts | 90° |
| 2026-04-12 06:36 | 53.59093 | -2.25638 | 3438 ft | 269 kts | 90° |
| 2026-04-12 06:37 | 53.59249 | -2.22494 | 3449 ft | 269 kts | 90° |
| 2026-04-12 06:37 | 53.59404 | -2.19354 | 3448 ft | 269 kts | 90° |
| 2026-04-12 06:37 | 53.59558 | -2.16216 | 3462 ft | 269 kts | 90° |
| 2026-04-12 06:37 | 53.59710 | -2.13079 | 3449 ft | 270 kts | 90° |
| 2026-04-12 06:38 | 53.59796 | -2.09946 | 3447 ft | 261 kts | 102° |
| 2026-04-12 06:38 | 53.59339 | -2.07155 | 3464 ft | 238 kts | 126° |
| 2026-04-12 06:38 | 53.58382 | -2.05018 | 3444 ft | 221 kts | 150° |
| 2026-04-12 06:38 | 53.57139 | -2.03676 | 3459 ft | 206 kts | 169° |
| 2026-04-12 06:39 | 53.55813 | -2.03024 | 3461 ft | 200 kts | 176° |
| 2026-04-12 06:39 | 53.54465 | -2.02440 | 3457 ft | 200 kts | 176° |
| 2026-04-12 06:39 | 53.53114 | -2.01851 | 3455 ft | 200 kts | 176° |
| 2026-04-12 06:39 | 53.51766 | -2.01261 | 3470 ft | 201 kts | 176° |
| 2026-04-12 06:40 | 53.50416 | -2.00750 | 3452 ft | 195 kts | 185° |
| 2026-04-12 06:40 | 53.49137 | -2.00893 | 3471 ft | 175 kts | 202° |
| 2026-04-12 06:40 | 53.48068 | -2.01632 | 3468 ft | 160 kts | 217° |
| 2026-04-12 06:40 | 53.47238 | -2.02803 | 3484 ft | 154 kts | 230° |
| 2026-04-12 06:41 | 53.46567 | -2.04198 | 3469 ft | 153 kts | 232° |
| 2026-04-12 06:41 | 53.45900 | -2.05593 | 3332 ft | 152 kts | 232° |
| 2026-04-12 06:41 | 53.45253 | -2.06945 | 3164 ft | 145 kts | 231° |
| 2026-04-12 06:41 | 53.44635 | -2.08236 | 2987 ft | 139 kts | 230° |
| 2026-04-12 06:42 | 53.44035 | -2.09487 | 2810 ft | 136 kts | 230° |
| 2026-04-12 06:42 | 53.43444 | -2.10721 | 2671 ft | 135 kts | 229° |
| 2026-04-12 06:42 | 53.42858 | -2.11942 | 2479 ft | 134 kts | 230° |
| 2026-04-12 06:42 | 53.42272 | -2.13163 | 2296 ft | 134 kts | 229° |
| 2026-04-12 06:43 | 53.41688 | -2.14381 | 2107 ft | 134 kts | 229° |
| 2026-04-12 06:43 | 53.41103 | -2.15599 | 1921 ft | 134 kts | 229° |
| 2026-04-12 06:43 | 53.40552 | -2.16747 | 1756 ft | 120 kts | 227° |
| 2026-04-12 06:43 | 53.40041 | -2.17809 | 1586 ft | 115 kts | 226° |
| 2026-04-12 06:44 | 53.39540 | -2.18851 | 1426 ft | 115 kts | 226° |
| 2026-04-12 06:44 | 53.39034 | -2.19901 | 1261 ft | 116 kts | 225° |
| 2026-04-12 06:44 | 53.38520 | -2.20968 | 1086 ft | 119 kts | 227° |
| 2026-04-12 06:44 | 53.37994 | -2.22058 | 906 ft | 121 kts | 227° |
| 2026-04-12 06:45 | 53.37463 | -2.23161 | 732 ft | 124 kts | 227° |
| 2026-04-12 06:45 | 53.36907 | -2.24320 | 521 ft | 130 kts | 229° |
| 2026-04-12 06:45 | 53.36347 | -2.25499 | 357 ft | 129 kts | 228° |
| 2026-04-12 06:45 | 53.35792 | -2.26622 | 271 ft | 110 kts | 233° |
| 2026-04-12 06:46 | 53.35421 | -2.27399 | 245 ft | 55 kts | 231° |
| 2026-04-12 06:46 | 53.35287 | -2.27729 | 238 ft | 27 kts | 246° |
| 2026-04-12 06:46 | 53.35251 | -2.27953 | 239 ft | 10 kts | 258° |
| 2026-04-12 06:46 | 53.35237 | -2.28079 | 231 ft | 7 kts | 264° |
| 2026-04-12 06:47 | 53.35232 | -2.28155 | 231 ft | 6 kts | 269° |
| 2026-04-12 06:47 | 53.35245 | -2.28206 | 231 ft | 5 kts | 314° |
| 2026-04-12 06:47 | 53.35300 | -2.28174 | 233 ft | 10 kts | 46° |
| 2026-04-12 06:47 | 53.35334 | -2.28117 | 237 ft | 5 kts | 45° |
| 2026-04-12 06:48 | 53.35348 | -2.28095 | 239 ft | 1 kts | 43° |
| 2026-04-12 06:48 | 53.35382 | -2.28040 | 237 ft | 9 kts | 43° |
| 2026-04-12 06:48 | 53.35422 | -2.27976 | 237 ft | 8 kts | 43° |
| 2026-04-12 06:48 | 53.35471 | -2.27895 | 239 ft | 12 kts | 44° |
| 2026-04-12 06:49 | 53.35543 | -2.27780 | 238 ft | 15 kts | 44° |
| 2026-04-12 06:49 | 53.35603 | -2.27681 | 243 ft | 9 kts | 44° |
| 2026-04-12 06:49 | 53.35658 | -2.27592 | 246 ft | 13 kts | 44° |
| 2026-04-12 06:49 | 53.35702 | -2.27500 | 252 ft | 11 kts | 51° |
| 2026-04-12 06:50 | 53.35743 | -2.27412 | 255 ft | 9 kts | 52° |
| 2026-04-12 06:50 | 53.35791 | -2.27313 | 255 ft | 12 kts | 49° |
| 2026-04-12 06:50 | 53.35837 | -2.27227 | 255 ft | 7 kts | 32° |
| 2026-04-12 06:50 | 53.35903 | -2.27230 | 255 ft | 14 kts | 352° |
| 2026-04-12 06:51 | 53.35993 | -2.27241 | 255 ft | 8 kts | 359° |
| 2026-04-12 06:51 | 53.36030 | -2.27214 | 255 ft | 5 kts | 53° |
| 2026-04-12 06:51 | 53.36044 | -2.27163 | 255 ft | 4 kts | 69° |
| 2026-04-12 06:51 | 53.36050 | -2.27135 | 255 ft | 0 kts | 70° |